createdAt,value
2023-04-22T00:01:53.358Z,14.11
2023-04-22T00:04:57.517Z,14.12
2023-04-22T00:08:01.023Z,14.05
2023-04-22T00:11:03.700Z,14.04
2023-04-22T00:14:06.228Z,14.04
2023-04-22T00:17:08.818Z,14.07
2023-04-22T00:20:11.770Z,14.07
2023-04-22T00:23:14.448Z,14.09
2023-04-22T00:26:17.073Z,14.08
2023-04-22T00:29:19.802Z,14.06
2023-04-22T00:32:22.694Z,14.07
2023-04-22T00:35:25.495Z,14.12
2023-04-22T00:38:28.126Z,14.20
2023-04-22T00:41:31.299Z,14.16
2023-04-22T00:44:33.916Z,14.05
2023-04-22T00:47:36.965Z,14.08
2023-04-22T00:50:39.588Z,14.09
2023-04-22T00:53:42.215Z,14.14
2023-04-22T00:56:45.157Z,14.02
2023-04-22T00:59:48.173Z,14.03
2023-04-22T01:02:50.842Z,13.93
2023-04-22T01:05:53.861Z,13.89
2023-04-22T01:08:56.484Z,13.90
2023-04-22T01:11:59.144Z,13.85
2023-04-22T01:15:04.783Z,13.85
2023-04-22T01:18:08.021Z,13.80
2023-04-22T01:21:11.948Z,13.73
2023-04-22T01:24:14.788Z,13.76
2023-04-22T01:27:19.857Z,13.69
2023-04-22T01:30:22.444Z,13.70
2023-04-22T01:33:25.071Z,13.64
2023-04-22T01:36:27.728Z,13.60
2023-04-22T01:39:30.365Z,13.59
2023-04-22T01:42:32.994Z,13.59
2023-04-22T01:45:35.734Z,13.68
2023-04-22T01:48:38.444Z,13.52
2023-04-22T01:51:40.978Z,13.45
2023-04-22T01:54:43.516Z,13.41
2023-04-22T01:57:46.244Z,13.39
2023-04-22T02:00:48.968Z,13.34
2023-04-22T02:03:52.008Z,13.32
2023-04-22T02:06:54.380Z,13.27
2023-04-22T02:09:57.322Z,13.24
2023-04-22T02:12:59.618Z,13.21
2023-04-22T02:16:02.847Z,13.15
2023-04-22T02:19:05.602Z,13.15
2023-04-22T02:22:09.372Z,13.08
2023-04-22T02:25:12.287Z,13.14
2023-04-22T02:28:15.017Z,13.04
2023-04-22T02:31:17.772Z,13.00
2023-04-22T02:34:20.936Z,13.02
2023-04-22T02:37:23.492Z,13.02
2023-04-22T02:40:26.752Z,12.92
2023-04-22T02:43:29.370Z,12.89
2023-04-22T02:46:31.985Z,12.87
2023-04-22T02:49:34.561Z,12.89
2023-04-22T02:52:37.070Z,12.83
2023-04-22T02:55:42.755Z,12.82
2023-04-22T02:58:45.302Z,12.83
2023-04-22T03:01:48.122Z,12.78
2023-04-22T03:04:54.423Z,12.84
2023-04-22T03:07:57.502Z,12.70
2023-04-22T03:11:00.035Z,12.67
2023-04-22T03:14:02.617Z,12.62
2023-04-22T03:17:06.031Z,12.60
2023-04-22T03:20:09.082Z,12.72
2023-04-22T03:23:11.833Z,12.67
2023-04-22T03:26:14.707Z,12.65
2023-04-22T03:29:17.370Z,12.61
2023-04-22T03:32:20.100Z,12.70
2023-04-22T03:35:23.882Z,12.64
2023-04-22T03:38:27.512Z,12.63
2023-04-22T03:41:30.415Z,12.60
2023-04-22T03:44:33.136Z,12.60
2023-04-22T03:47:37.168Z,12.62
2023-04-22T03:50:42.009Z,12.63
2023-04-22T03:53:44.687Z,12.65
2023-04-22T03:56:48.116Z,12.72
2023-04-22T03:59:50.819Z,12.66
2023-04-22T04:02:53.673Z,12.74
2023-04-22T04:05:57.648Z,12.63
2023-04-22T04:09:01.637Z,12.60
2023-04-22T04:12:05.300Z,12.60
2023-04-22T04:15:08.804Z,12.67
2023-04-22T04:18:11.987Z,12.62
2023-04-22T04:21:14.393Z,12.71
2023-04-22T04:24:19.108Z,12.67
2023-04-22T04:27:23.654Z,12.66
2023-04-22T04:30:26.846Z,12.64
2023-04-22T04:33:31.913Z,12.68
2023-04-22T04:36:34.850Z,12.74
2023-04-22T04:39:38.345Z,12.66
2023-04-22T04:42:42.450Z,12.70
2023-04-22T04:45:48.483Z,12.73
2023-04-22T04:48:54.048Z,12.81
2023-04-22T04:51:57.808Z,13.01
2023-04-22T04:55:01.786Z,12.98
2023-04-22T04:58:06.082Z,13.01
2023-04-22T05:01:09.049Z,13.08
2023-04-22T05:04:12.173Z,13.01
2023-04-22T05:07:15.401Z,13.06
2023-04-22T05:10:17.910Z,13.11
2023-04-22T05:13:22.334Z,13.21
2023-04-22T05:16:24.837Z,13.16
2023-04-22T05:19:27.896Z,13.11
2023-04-22T05:22:30.535Z,13.14
2023-04-22T05:25:34.161Z,13.20
2023-04-22T05:28:38.076Z,13.18
2023-04-22T05:31:41.187Z,13.19
2023-04-22T05:34:43.567Z,13.21
2023-04-22T05:37:47.516Z,13.23
2023-04-22T05:40:49.937Z,13.23
2023-04-22T05:43:52.882Z,13.35
2023-04-22T05:46:55.530Z,13.37
2023-04-22T05:49:59.843Z,13.32
2023-04-22T05:53:02.778Z,13.30
2023-04-22T05:56:05.829Z,13.32
2023-04-22T05:59:08.698Z,13.37
2023-04-22T06:02:11.720Z,13.42
2023-04-22T06:05:16.378Z,13.52
2023-04-22T06:08:19.689Z,13.78
2023-04-22T06:11:22.481Z,14.04
2023-04-22T06:14:25.057Z,14.14
2023-04-22T06:17:27.972Z,14.20
2023-04-22T06:20:32.806Z,14.27
2023-04-22T06:23:35.472Z,14.27
2023-04-22T06:26:38.294Z,14.29
2023-04-22T06:29:41.308Z,14.49
2023-04-22T06:32:44.219Z,14.61
2023-04-22T06:35:46.893Z,14.70
2023-04-22T06:38:49.560Z,14.91
2023-04-22T06:41:53.014Z,14.94
2023-04-22T06:44:56.607Z,15.23
2023-04-22T06:47:59.368Z,15.33
2023-04-22T06:51:02.834Z,15.51
2023-04-22T06:54:05.940Z,15.70
2023-04-22T06:57:08.470Z,15.89
2023-04-22T07:00:11.663Z,16.06
2023-04-22T07:03:14.724Z,16.37
2023-04-22T07:06:18.389Z,16.56
2023-04-22T07:09:21.387Z,16.68
2023-04-22T07:12:25.762Z,16.95
2023-04-22T07:15:28.364Z,17.25
2023-04-22T07:18:30.926Z,17.62
2023-04-22T07:21:33.691Z,17.69
2023-04-22T07:24:36.288Z,17.97
2023-04-22T07:27:38.935Z,18.21
2023-04-22T07:30:41.732Z,18.56
2023-04-22T07:33:44.414Z,18.78
2023-04-22T07:36:47.045Z,19.11
2023-04-22T07:39:49.579Z,19.60
2023-04-22T07:42:52.182Z,19.82
2023-04-22T07:45:54.879Z,20.27
2023-04-22T07:48:57.623Z,20.67
2023-04-22T07:52:00.336Z,20.77
2023-04-22T07:55:02.982Z,21.10
2023-04-22T07:58:06.708Z,21.31
2023-04-22T08:01:09.567Z,21.56
2023-04-22T08:04:12.978Z,21.82
2023-04-22T08:07:30.914Z,22.08
2023-04-22T08:10:36.083Z,22.51
2023-04-22T08:13:38.342Z,22.70
2023-04-22T08:16:41.929Z,23.09
2023-04-22T08:19:45.545Z,23.40
2023-04-22T08:22:50.589Z,24.12
2023-04-22T08:25:52.970Z,24.22
2023-04-22T08:28:56.059Z,24.26
2023-04-22T08:31:58.452Z,24.36
2023-04-22T08:35:05.006Z,24.60
2023-04-22T08:38:07.958Z,25.38
2023-04-22T08:41:10.889Z,25.72
2023-04-22T08:44:14.444Z,26.43
2023-04-22T08:47:18.437Z,26.39
2023-04-22T08:50:24.319Z,26.38
2023-04-22T08:53:27.444Z,26.43
2023-04-22T08:56:30.317Z,26.88
2023-04-22T08:59:33.963Z,27.13
2023-04-22T09:02:37.183Z,27.04
2023-04-22T09:05:40.820Z,27.04
2023-04-22T09:08:43.267Z,27.50
2023-04-22T09:11:46.135Z,27.30
2023-04-22T09:14:48.484Z,27.14
2023-04-22T09:17:51.892Z,27.39
2023-04-22T09:20:55.340Z,27.84
2023-04-22T09:24:00.493Z,27.94
2023-04-22T09:27:03.609Z,28.13
2023-04-22T09:30:08.344Z,28.22
2023-04-22T09:33:10.935Z,28.27
2023-04-22T09:36:13.880Z,28.43
2023-04-22T09:39:16.215Z,28.47
2023-04-22T09:42:19.512Z,28.44
2023-04-22T09:45:29.456Z,28.41
2023-04-22T09:48:32.330Z,28.77
2023-04-22T09:51:34.686Z,29.32
2023-04-22T09:54:37.570Z,29.76
2023-04-22T09:57:39.851Z,29.91
2023-04-22T10:00:50.581Z,30.19
2023-04-22T10:03:53.479Z,30.22
2023-04-22T10:06:56.943Z,30.51
2023-04-22T10:09:59.514Z,30.48
2023-04-22T10:13:04.410Z,30.40
2023-04-22T10:16:07.118Z,30.32
2023-04-22T10:19:11.219Z,30.18
2023-04-22T10:22:14.152Z,30.29
2023-04-22T10:25:26.373Z,30.51
2023-04-22T10:28:29.549Z,30.38
2023-04-22T10:31:32.485Z,29.22
2023-04-22T10:34:36.488Z,27.94
2023-04-22T10:37:42.885Z,27.87
2023-04-22T10:41:00.923Z,28.64
2023-04-22T10:44:06.956Z,29.27
2023-04-22T10:47:09.735Z,29.04
2023-04-22T10:50:13.978Z,29.38
2023-04-22T10:53:35.551Z,29.93
2023-04-22T10:56:58.541Z,30.54
2023-04-22T11:00:01.290Z,30.55
2023-04-22T11:03:11.281Z,29.33
2023-04-22T11:06:15.910Z,28.24
2023-04-22T11:09:18.690Z,27.45
2023-04-22T11:12:39.735Z,26.86
2023-04-22T11:15:44.113Z,26.37
2023-04-22T11:18:47.910Z,26.14
2023-04-22T11:21:51.311Z,26.06
2023-04-22T11:24:57.547Z,25.97
2023-04-22T11:28:00.360Z,25.66
2023-04-22T11:31:06.856Z,25.30
2023-04-22T11:34:09.582Z,24.95
2023-04-22T11:37:12.662Z,24.72
2023-04-22T11:40:29.973Z,24.15
2023-04-22T11:43:33.745Z,23.65
2023-04-22T11:46:39.574Z,23.54
2023-04-22T11:49:42.321Z,23.03
2023-04-22T11:52:58.964Z,22.98
2023-04-22T11:56:03.727Z,22.76
2023-04-22T11:59:07.549Z,22.94
2023-04-22T12:02:11.643Z,23.83
2023-04-22T12:05:14.744Z,24.59
2023-04-22T12:08:21.506Z,24.46
2023-04-22T12:11:26.089Z,24.00
2023-04-22T12:14:35.150Z,23.82
2023-04-22T12:17:38.471Z,23.71
2023-04-22T12:20:42.014Z,23.78
2023-04-22T12:23:45.888Z,23.75
2023-04-22T12:26:48.196Z,23.91
2023-04-22T12:29:55.180Z,24.39
2023-04-22T12:32:57.536Z,24.90
2023-04-22T12:36:00.554Z,25.31
2023-04-22T12:39:03.924Z,25.04
2023-04-22T12:42:07.213Z,25.02
2023-04-22T12:45:09.740Z,24.40
2023-04-22T12:48:12.672Z,23.86
2023-04-22T12:51:14.936Z,23.35
2023-04-22T12:54:18.975Z,23.04
2023-04-22T12:57:21.288Z,23.02
2023-04-22T13:00:24.618Z,23.19
2023-04-22T13:03:27.122Z,23.95
2023-04-22T13:06:31.348Z,24.66
2023-04-22T13:09:33.743Z,25.36
2023-04-22T13:12:38.551Z,25.61
2023-04-22T13:15:41.455Z,25.63
2023-04-22T13:18:44.292Z,25.88
2023-04-22T13:21:47.541Z,26.33
2023-04-22T13:24:50.496Z,26.86
2023-04-22T13:27:52.799Z,27.02
2023-04-22T13:30:55.860Z,26.84
2023-04-22T13:33:58.259Z,26.67
2023-04-22T13:37:01.170Z,25.65
2023-04-22T13:40:05.770Z,24.86
2023-04-22T13:43:09.250Z,24.02
2023-04-22T13:46:11.565Z,23.81
2023-04-22T13:49:14.503Z,24.12
2023-04-22T13:52:16.792Z,24.50
2023-04-22T13:55:19.732Z,24.58
2023-04-22T13:58:22.328Z,24.63
2023-04-22T14:01:25.380Z,24.55
2023-04-22T14:04:29.629Z,24.32
2023-04-22T14:07:32.212Z,24.32
2023-04-22T14:10:34.912Z,24.31
2023-04-22T14:13:37.803Z,24.14
2023-04-22T14:16:40.470Z,24.06
2023-04-22T14:19:45.229Z,23.85
2023-04-22T14:22:47.796Z,23.61
2023-04-22T14:25:50.392Z,23.51
2023-04-22T14:28:53.040Z,23.38
2023-04-22T14:31:57.431Z,23.40
2023-04-22T14:35:00.078Z,23.27
2023-04-22T14:38:03.856Z,23.25
2023-04-22T14:41:06.636Z,23.19
2023-04-22T14:44:09.309Z,22.92
2023-04-22T14:47:11.888Z,22.83
2023-04-22T14:50:14.467Z,22.85
2023-04-22T14:53:17.037Z,22.97
2023-04-22T14:56:19.597Z,22.91
2023-04-22T14:59:22.688Z,23.01
2023-04-22T15:02:25.561Z,22.99
2023-04-22T15:05:28.406Z,22.75
2023-04-22T15:08:31.059Z,22.55
2023-04-22T15:11:33.686Z,22.57
2023-04-22T15:14:36.468Z,22.51
2023-04-22T15:17:39.339Z,22.27
2023-04-22T15:20:42.005Z,22.24
2023-04-22T15:23:44.600Z,22.17
2023-04-22T15:26:48.486Z,22.28
2023-04-22T15:29:51.462Z,22.09
2023-04-22T15:32:54.165Z,22.02
2023-04-22T15:35:56.829Z,21.96
2023-04-22T15:38:59.651Z,22.13
2023-04-22T15:42:02.791Z,22.01
2023-04-22T15:45:05.954Z,22.06
2023-04-22T15:48:08.808Z,22.04
2023-04-22T15:51:11.639Z,21.74
2023-04-22T15:54:14.216Z,21.77
2023-04-22T15:57:16.789Z,21.54
2023-04-22T16:00:19.455Z,21.43
2023-04-22T16:03:22.123Z,21.41
2023-04-22T16:06:25.346Z,21.36
2023-04-22T16:09:27.929Z,21.16
2023-04-22T16:12:32.758Z,21.11
2023-04-22T16:15:36.994Z,21.03
2023-04-22T16:18:41.405Z,20.92
2023-04-22T16:21:46.098Z,20.85
2023-04-22T16:24:48.678Z,20.86
2023-04-22T16:27:51.300Z,20.76
2023-04-22T16:30:54.258Z,20.68
2023-04-22T16:33:56.998Z,20.59
2023-04-22T16:36:59.633Z,20.57
2023-04-22T16:40:02.805Z,20.48
2023-04-22T16:43:05.890Z,20.45
2023-04-22T16:46:08.584Z,20.47
2023-04-22T16:49:11.774Z,20.40
2023-04-22T16:52:14.439Z,20.34
2023-04-22T16:55:17.117Z,20.27
2023-04-22T16:58:19.677Z,20.26
2023-04-22T17:01:23.808Z,20.21
2023-04-22T17:04:26.613Z,20.13
2023-04-22T17:07:30.360Z,20.10
2023-04-22T17:10:33.003Z,20.04
2023-04-22T17:13:35.918Z,19.97
2023-04-22T17:16:38.477Z,19.93
2023-04-22T17:19:43.004Z,19.88
2023-04-22T17:22:46.538Z,19.84
2023-04-22T17:25:49.446Z,19.86
2023-04-22T17:28:52.045Z,19.79
2023-04-22T17:31:54.691Z,19.72
2023-04-22T17:34:57.703Z,19.65
2023-04-22T17:38:00.286Z,19.60
2023-04-22T17:41:03.141Z,19.56
2023-04-22T17:44:07.517Z,19.51
2023-04-22T17:47:10.347Z,19.43
2023-04-22T17:50:13.018Z,19.35
2023-04-22T17:53:15.669Z,19.30
2023-04-22T17:56:18.347Z,19.23
2023-04-22T17:59:20.956Z,19.21
2023-04-22T18:02:25.177Z,19.15
2023-04-22T18:05:28.288Z,19.08
2023-04-22T18:08:31.052Z,18.99
2023-04-22T18:11:34.168Z,18.94
2023-04-22T18:14:36.642Z,18.88
2023-04-22T18:17:39.550Z,18.99
2023-04-22T18:20:42.767Z,18.87
2023-04-22T18:23:45.718Z,18.81
2023-04-22T18:26:49.288Z,18.73
2023-04-22T18:29:52.234Z,18.67
2023-04-22T18:32:54.618Z,18.60
2023-04-22T18:36:00.041Z,18.55
2023-04-22T18:39:04.633Z,18.49
2023-04-22T18:42:07.594Z,18.46
2023-04-22T18:45:10.508Z,18.51
2023-04-22T18:48:13.422Z,18.37
2023-04-22T18:51:15.867Z,18.29
2023-04-22T18:54:18.830Z,18.25
2023-04-22T18:57:21.404Z,18.25
2023-04-22T19:00:24.394Z,18.24
2023-04-22T19:03:26.897Z,18.17
2023-04-22T19:06:30.019Z,18.17
2023-04-22T19:09:32.449Z,18.08
2023-04-22T19:12:35.696Z,18.20
2023-04-22T19:15:38.097Z,18.03
2023-04-22T19:18:41.270Z,17.94
2023-04-22T19:21:43.893Z,18.17
2023-04-22T19:24:46.976Z,17.95
2023-04-22T19:27:49.297Z,18.00
2023-04-22T19:30:52.322Z,17.85
2023-04-22T19:33:54.751Z,17.75
2023-04-22T19:36:57.680Z,17.96
2023-04-22T19:40:00.357Z,17.74
2023-04-22T19:43:03.876Z,17.74
2023-04-22T19:46:06.839Z,17.60
2023-04-22T19:49:09.884Z,17.51
2023-04-22T19:52:15.503Z,17.47
2023-04-22T19:55:18.881Z,17.44
2023-04-22T19:58:21.795Z,17.48
2023-04-22T20:01:25.014Z,17.45
2023-04-22T20:04:28.054Z,17.49
2023-04-22T20:07:32.827Z,17.33
2023-04-22T20:10:36.352Z,17.41
2023-04-22T20:13:40.816Z,17.25
2023-04-22T20:16:44.952Z,17.17
2023-04-22T20:19:49.807Z,17.29
2023-04-22T20:22:53.804Z,17.14
2023-04-22T20:25:57.911Z,17.28
2023-04-22T20:29:00.883Z,17.09
2023-04-22T20:32:05.143Z,17.08
2023-04-22T20:35:11.508Z,17.06
2023-04-22T20:38:15.155Z,17.03
2023-04-22T20:41:20.790Z,16.97
2023-04-22T20:44:23.415Z,17.19
2023-04-22T20:47:27.179Z,16.90
2023-04-22T20:50:33.437Z,16.87
2023-04-22T20:53:36.334Z,16.76
2023-04-22T20:56:39.064Z,17.12
2023-04-22T20:59:41.651Z,16.85
2023-04-22T21:02:44.461Z,16.71
2023-04-22T21:05:47.255Z,16.64
2023-04-22T21:08:50.666Z,16.61
2023-04-22T21:11:54.715Z,16.64
2023-04-22T21:14:57.534Z,16.64
2023-04-22T21:18:02.978Z,16.61
2023-04-22T21:21:06.871Z,16.53
2023-04-22T21:24:10.034Z,16.48
2023-04-22T21:27:12.823Z,16.51
2023-04-22T21:30:15.697Z,16.76
2023-04-22T21:33:18.251Z,16.65
2023-04-22T21:36:22.583Z,16.44
2023-04-22T21:39:25.344Z,16.35
2023-04-22T21:42:27.989Z,16.60
2023-04-22T21:45:31.253Z,16.36
2023-04-22T21:48:33.827Z,16.26
2023-04-22T21:51:36.551Z,16.23
2023-04-22T21:54:39.432Z,16.24
2023-04-22T21:57:42.263Z,16.19
2023-04-22T22:00:45.098Z,16.17
2023-04-22T22:03:48.126Z,16.15
2023-04-22T22:06:50.523Z,16.13
2023-04-22T22:09:53.336Z,16.10
2023-04-22T22:12:55.786Z,16.08
2023-04-22T22:15:59.435Z,16.03
2023-04-22T22:19:04.442Z,15.98
2023-04-22T22:22:07.697Z,15.95
2023-04-22T22:25:11.613Z,15.91
2023-04-22T22:28:14.776Z,15.87
2023-04-22T22:31:17.079Z,15.82
2023-04-22T22:34:20.027Z,15.77
2023-04-22T22:37:22.372Z,15.72
2023-04-22T22:40:25.230Z,15.66
2023-04-22T22:43:27.548Z,15.60
2023-04-22T22:46:30.617Z,15.54
2023-04-22T22:49:33.321Z,15.48
2023-04-22T22:52:36.575Z,15.43
2023-04-22T22:55:38.907Z,15.38
2023-04-22T22:58:42.039Z,15.37
2023-04-22T23:01:44.483Z,15.34
2023-04-22T23:04:47.466Z,15.32
2023-04-22T23:07:49.816Z,15.28
2023-04-22T23:10:52.621Z,15.24
2023-04-22T23:13:54.967Z,15.18
2023-04-22T23:16:57.873Z,15.14
2023-04-22T23:20:01.334Z,15.08
2023-04-22T23:23:04.616Z,15.04
2023-04-22T23:26:07.035Z,14.99
2023-04-22T23:29:10.105Z,14.96
2023-04-22T23:32:15.010Z,14.93
2023-04-22T23:35:18.848Z,14.89
2023-04-22T23:38:21.430Z,14.86
2023-04-22T23:41:24.398Z,14.79
2023-04-22T23:44:26.648Z,14.74
2023-04-22T23:47:31.366Z,14.69
2023-04-22T23:50:33.696Z,14.67
2023-04-22T23:53:36.573Z,14.64
2023-04-22T23:56:39.076Z,14.61
2023-04-22T23:59:44.370Z,14.59
